sensor_id;sensor_type;location;lat;lon;timestamp;P1;durP1;ratioP1;P2;durP2;ratioP2
66974;SDS011;53903;51.464;-2.584;2022-08-03T00:01:48;7.45;;;2.25;;
66974;SDS011;53903;51.464;-2.584;2022-08-03T00:04:14;6.05;;;2.17;;
66974;SDS011;53903;51.464;-2.584;2022-08-03T00:06:39;9.07;;;2.35;;
66974;SDS011;53903;51.464;-2.584;2022-08-03T00:09:05;8.95;;;2.10;;
66974;SDS011;53903;51.464;-2.584;2022-08-03T00:11:32;10.70;;;2.28;;
66974;SDS011;53903;51.464;-2.584;2022-08-03T00:13:57;9.45;;;2.22;;
66974;SDS011;53903;51.464;-2.584;2022-08-03T00:16:23;9.35;;;2.30;;
66974;SDS011;53903;51.464;-2.584;2022-08-03T00:18:50;8.57;;;1.95;;
66974;SDS011;53903;51.464;-2.584;2022-08-03T00:21:15;9.55;;;2.50;;
66974;SDS011;53903;51.464;-2.584;2022-08-03T00:23:41;11.32;;;2.35;;
66974;SDS011;53903;51.464;-2.584;2022-08-03T00:26:06;7.15;;;2.13;;
66974;SDS011;53903;51.464;-2.584;2022-08-03T00:28:31;4.95;;;1.88;;
66974;SDS011;53903;51.464;-2.584;2022-08-03T00:30:57;9.85;;;2.17;;
66974;SDS011;53903;51.464;-2.584;2022-08-03T00:33:22;10.68;;;2.00;;
66974;SDS011;53903;51.464;-2.584;2022-08-03T00:35:48;6.00;;;1.90;;
66974;SDS011;53903;51.464;-2.584;2022-08-03T00:38:13;9.77;;;1.92;;
66974;SDS011;53903;51.464;-2.584;2022-08-03T00:40:38;7.72;;;1.88;;
66974;SDS011;53903;51.464;-2.584;2022-08-03T00:43:04;8.07;;;1.65;;
66974;SDS011;53903;51.464;-2.584;2022-08-03T00:45:33;5.20;;;1.73;;
66974;SDS011;53903;51.464;-2.584;2022-08-03T00:48:03;7.47;;;2.20;;
66974;SDS011;53903;51.464;-2.584;2022-08-03T00:50:29;8.45;;;2.00;;
66974;SDS011;53903;51.464;-2.584;2022-08-03T00:52:58;9.13;;;2.10;;
66974;SDS011;53903;51.464;-2.584;2022-08-03T00:55:24;6.82;;;2.47;;
66974;SDS011;53903;51.464;-2.584;2022-08-03T00:57:50;6.60;;;1.88;;
66974;SDS011;53903;51.464;-2.584;2022-08-03T01:00:17;7.78;;;1.83;;
66974;SDS011;53903;51.464;-2.584;2022-08-03T01:02:44;6.55;;;1.92;;
66974;SDS011;53903;51.464;-2.584;2022-08-03T01:05:09;9.02;;;3.03;;
66974;SDS011;53903;51.464;-2.584;2022-08-03T01:10:14;7.47;;;1.70;;
66974;SDS011;53903;51.464;-2.584;2022-08-03T01:12:47;6.30;;;2.28;;
66974;SDS011;53903;51.464;-2.584;2022-08-03T01:15:31;11.10;;;2.25;;
66974;SDS011;53903;51.464;-2.584;2022-08-03T01:18:08;11.77;;;2.20;;
66974;SDS011;53903;51.464;-2.584;2022-08-03T01:20:39;8.20;;;2.10;;
66974;SDS011;53903;51.464;-2.584;2022-08-03T01:26:05;9.35;;;2.15;;
66974;SDS011;53903;51.464;-2.584;2022-08-03T01:31:25;6.47;;;1.70;;
66974;SDS011;53903;51.464;-2.584;2022-08-03T01:33:59;4.35;;;1.67;;
66974;SDS011;53903;51.464;-2.584;2022-08-03T01:36:33;11.32;;;2.05;;
66974;SDS011;53903;51.464;-2.584;2022-08-03T01:39:01;7.25;;;2.38;;
66974;SDS011;53903;51.464;-2.584;2022-08-03T01:41:29;6.72;;;1.65;;
66974;SDS011;53903;51.464;-2.584;2022-08-03T01:43:57;7.57;;;2.17;;
66974;SDS011;53903;51.464;-2.584;2022-08-03T01:46:24;9.45;;;1.80;;
66974;SDS011;53903;51.464;-2.584;2022-08-03T01:48:50;7.30;;;1.90;;
66974;SDS011;53903;51.464;-2.584;2022-08-03T01:51:17;10.07;;;2.00;;
66974;SDS011;53903;51.464;-2.584;2022-08-03T01:53:43;6.07;;;1.90;;
66974;SDS011;53903;51.464;-2.584;2022-08-03T01:56:09;5.65;;;1.90;;
66974;SDS011;53903;51.464;-2.584;2022-08-03T01:58:36;4.85;;;2.00;;
66974;SDS011;53903;51.464;-2.584;2022-08-03T02:01:02;4.72;;;1.67;;
66974;SDS011;53903;51.464;-2.584;2022-08-03T02:03:28;6.47;;;2.13;;
66974;SDS011;53903;51.464;-2.584;2022-08-03T02:05:54;5.72;;;1.73;;
66974;SDS011;53903;51.464;-2.584;2022-08-03T02:08:20;5.13;;;1.90;;
66974;SDS011;53903;51.464;-2.584;2022-08-03T02:10:48;6.55;;;2.50;;
66974;SDS011;53903;51.464;-2.584;2022-08-03T02:13:14;8.10;;;3.10;;
66974;SDS011;53903;51.464;-2.584;2022-08-03T02:15:41;8.60;;;3.60;;
66974;SDS011;53903;51.464;-2.584;2022-08-03T02:18:07;8.05;;;4.13;;
66974;SDS011;53903;51.464;-2.584;2022-08-03T02:20:34;9.32;;;4.60;;
66974;SDS011;53903;51.464;-2.584;2022-08-03T02:23:02;10.57;;;4.63;;
66974;SDS011;53903;51.464;-2.584;2022-08-03T02:25:27;8.38;;;4.68;;
66974;SDS011;53903;51.464;-2.584;2022-08-03T02:27:55;11.30;;;4.82;;
66974;SDS011;53903;51.464;-2.584;2022-08-03T02:30:28;11.45;;;5.55;;
66974;SDS011;53903;51.464;-2.584;2022-08-03T02:32:56;8.15;;;4.90;;
66974;SDS011;53903;51.464;-2.584;2022-08-03T02:35:23;9.57;;;5.35;;
66974;SDS011;53903;51.464;-2.584;2022-08-03T02:37:51;8.60;;;4.78;;
66974;SDS011;53903;51.464;-2.584;2022-08-03T02:40:18;7.50;;;4.57;;
66974;SDS011;53903;51.464;-2.584;2022-08-03T02:42:44;6.85;;;3.88;;
66974;SDS011;53903;51.464;-2.584;2022-08-03T02:45:11;5.90;;;3.55;;
66974;SDS011;53903;51.464;-2.584;2022-08-03T02:47:38;5.93;;;4.15;;
66974;SDS011;53903;51.464;-2.584;2022-08-03T02:50:05;5.63;;;3.00;;
66974;SDS011;53903;51.464;-2.584;2022-08-03T02:52:35;5.50;;;2.88;;
66974;SDS011;53903;51.464;-2.584;2022-08-03T02:55:01;6.68;;;3.30;;
66974;SDS011;53903;51.464;-2.584;2022-08-03T02:57:30;5.63;;;3.05;;
66974;SDS011;53903;51.464;-2.584;2022-08-03T02:59:56;5.82;;;3.00;;
66974;SDS011;53903;51.464;-2.584;2022-08-03T03:02:22;9.50;;;4.20;;
66974;SDS011;53903;51.464;-2.584;2022-08-03T03:04:49;6.63;;;3.85;;
66974;SDS011;53903;51.464;-2.584;2022-08-03T03:07:15;6.00;;;3.83;;
66974;SDS011;53903;51.464;-2.584;2022-08-03T03:09:41;8.00;;;4.10;;
66974;SDS011;53903;51.464;-2.584;2022-08-03T03:12:07;6.70;;;4.15;;
66974;SDS011;53903;51.464;-2.584;2022-08-03T03:14:35;9.50;;;4.07;;
66974;SDS011;53903;51.464;-2.584;2022-08-03T03:17:01;9.02;;;3.67;;
66974;SDS011;53903;51.464;-2.584;2022-08-03T03:19:26;7.03;;;3.58;;
66974;SDS011;53903;51.464;-2.584;2022-08-03T03:21:54;12.50;;;4.15;;
66974;SDS011;53903;51.464;-2.584;2022-08-03T03:24:20;7.43;;;3.60;;
66974;SDS011;53903;51.464;-2.584;2022-08-03T03:26:46;9.48;;;3.97;;
66974;SDS011;53903;51.464;-2.584;2022-08-03T03:29:12;8.30;;;5.05;;
66974;SDS011;53903;51.464;-2.584;2022-08-03T03:31:39;7.03;;;3.50;;
66974;SDS011;53903;51.464;-2.584;2022-08-03T03:34:04;3.95;;;2.70;;
66974;SDS011;53903;51.464;-2.584;2022-08-03T03:36:30;5.00;;;3.17;;
66974;SDS011;53903;51.464;-2.584;2022-08-03T03:38:56;3.97;;;2.80;;
66974;SDS011;53903;51.464;-2.584;2022-08-03T03:41:21;9.07;;;3.10;;
66974;SDS011;53903;51.464;-2.584;2022-08-03T03:43:48;6.75;;;3.08;;
66974;SDS011;53903;51.464;-2.584;2022-08-03T03:46:14;4.95;;;2.97;;
66974;SDS011;53903;51.464;-2.584;2022-08-03T03:48:39;5.20;;;3.00;;
66974;SDS011;53903;51.464;-2.584;2022-08-03T03:51:04;5.45;;;2.63;;
66974;SDS011;53903;51.464;-2.584;2022-08-03T03:53:31;13.23;;;5.05;;
66974;SDS011;53903;51.464;-2.584;2022-08-03T03:55:56;5.28;;;2.40;;
66974;SDS011;53903;51.464;-2.584;2022-08-03T03:58:21;5.20;;;3.40;;
66974;SDS011;53903;51.464;-2.584;2022-08-03T04:00:47;6.55;;;3.28;;
66974;SDS011;53903;51.464;-2.584;2022-08-03T04:03:13;6.47;;;3.13;;
66974;SDS011;53903;51.464;-2.584;2022-08-03T04:05:39;6.80;;;3.28;;
66974;SDS011;53903;51.464;-2.584;2022-08-03T04:08:23;4.82;;;3.15;;
66974;SDS011;53903;51.464;-2.584;2022-08-03T04:13:38;5.88;;;3.65;;
66974;SDS011;53903;51.464;-2.584;2022-08-03T04:16:05;6.47;;;3.83;;
66974;SDS011;53903;51.464;-2.584;2022-08-03T04:18:33;5.50;;;4.15;;
66974;SDS011;53903;51.464;-2.584;2022-08-03T04:21:01;6.13;;;3.63;;
66974;SDS011;53903;51.464;-2.584;2022-08-03T04:23:29;8.93;;;4.13;;
66974;SDS011;53903;51.464;-2.584;2022-08-03T04:25:58;5.35;;;3.30;;
66974;SDS011;53903;51.464;-2.584;2022-08-03T04:28:26;7.00;;;2.92;;
66974;SDS011;53903;51.464;-2.584;2022-08-03T04:30:52;4.53;;;2.85;;
66974;SDS011;53903;51.464;-2.584;2022-08-03T04:33:18;6.82;;;2.83;;
66974;SDS011;53903;51.464;-2.584;2022-08-03T04:35:45;4.60;;;3.25;;
66974;SDS011;53903;51.464;-2.584;2022-08-03T04:38:12;7.75;;;2.15;;
66974;SDS011;53903;51.464;-2.584;2022-08-03T04:40:39;7.20;;;2.33;;
66974;SDS011;53903;51.464;-2.584;2022-08-03T04:43:06;6.80;;;2.17;;
66974;SDS011;53903;51.464;-2.584;2022-08-03T04:45:33;3.53;;;1.90;;
66974;SDS011;53903;51.464;-2.584;2022-08-03T04:48:00;3.40;;;2.03;;
66974;SDS011;53903;51.464;-2.584;2022-08-03T04:50:25;3.30;;;1.50;;
66974;SDS011;53903;51.464;-2.584;2022-08-03T04:52:52;3.60;;;1.33;;
66974;SDS011;53903;51.464;-2.584;2022-08-03T04:55:24;3.65;;;1.40;;
66974;SDS011;53903;51.464;-2.584;2022-08-03T04:57:51;4.45;;;2.10;;
66974;SDS011;53903;51.464;-2.584;2022-08-03T05:00:16;4.07;;;1.67;;
66974;SDS011;53903;51.464;-2.584;2022-08-03T05:02:42;6.28;;;1.45;;
66974;SDS011;53903;51.464;-2.584;2022-08-03T05:05:08;5.55;;;2.58;;
66974;SDS011;53903;51.464;-2.584;2022-08-03T05:07:33;3.60;;;1.95;;
66974;SDS011;53903;51.464;-2.584;2022-08-03T05:09:59;4.45;;;2.20;;
66974;SDS011;53903;51.464;-2.584;2022-08-03T05:12:24;6.47;;;2.22;;
66974;SDS011;53903;51.464;-2.584;2022-08-03T05:14:49;4.45;;;2.25;;
66974;SDS011;53903;51.464;-2.584;2022-08-03T05:17:15;3.42;;;2.47;;
66974;SDS011;53903;51.464;-2.584;2022-08-03T05:19:40;6.32;;;2.40;;
66974;SDS011;53903;51.464;-2.584;2022-08-03T05:22:05;4.22;;;2.22;;
66974;SDS011;53903;51.464;-2.584;2022-08-03T05:24:31;4.20;;;2.00;;
66974;SDS011;53903;51.464;-2.584;2022-08-03T05:26:56;4.40;;;1.92;;
66974;SDS011;53903;51.464;-2.584;2022-08-03T05:29:21;6.70;;;2.05;;
66974;SDS011;53903;51.464;-2.584;2022-08-03T05:31:47;2.63;;;1.67;;
66974;SDS011;53903;51.464;-2.584;2022-08-03T05:34:12;4.03;;;1.80;;
66974;SDS011;53903;51.464;-2.584;2022-08-03T05:36:37;2.30;;;1.85;;
66974;SDS011;53903;51.464;-2.584;2022-08-03T05:39:03;3.47;;;1.80;;
66974;SDS011;53903;51.464;-2.584;2022-08-03T05:41:29;4.32;;;1.65;;
66974;SDS011;53903;51.464;-2.584;2022-08-03T05:43:54;3.20;;;1.45;;
66974;SDS011;53903;51.464;-2.584;2022-08-03T05:46:20;2.25;;;1.38;;
66974;SDS011;53903;51.464;-2.584;2022-08-03T05:48:46;1.73;;;1.35;;
66974;SDS011;53903;51.464;-2.584;2022-08-03T05:51:11;1.63;;;1.02;;
66974;SDS011;53903;51.464;-2.584;2022-08-03T05:53:37;1.67;;;1.20;;
66974;SDS011;53903;51.464;-2.584;2022-08-03T05:56:06;3.10;;;1.40;;
66974;SDS011;53903;51.464;-2.584;2022-08-03T05:58:32;2.65;;;1.10;;
66974;SDS011;53903;51.464;-2.584;2022-08-03T06:00:57;2.63;;;1.27;;
66974;SDS011;53903;51.464;-2.584;2022-08-03T06:03:22;3.70;;;1.10;;
66974;SDS011;53903;51.464;-2.584;2022-08-03T06:05:48;3.25;;;1.30;;
66974;SDS011;53903;51.464;-2.584;2022-08-03T06:08:13;9.20;;;1.48;;
66974;SDS011;53903;51.464;-2.584;2022-08-03T06:10:39;5.57;;;1.13;;
66974;SDS011;53903;51.464;-2.584;2022-08-03T06:13:04;3.42;;;1.23;;
66974;SDS011;53903;51.464;-2.584;2022-08-03T06:15:29;3.05;;;1.00;;
66974;SDS011;53903;51.464;-2.584;2022-08-03T06:17:57;2.55;;;1.17;;
66974;SDS011;53903;51.464;-2.584;2022-08-03T06:20:22;4.78;;;1.05;;
66974;SDS011;53903;51.464;-2.584;2022-08-03T06:22:48;2.88;;;1.00;;
66974;SDS011;53903;51.464;-2.584;2022-08-03T06:25:13;2.63;;;0.80;;
66974;SDS011;53903;51.464;-2.584;2022-08-03T06:27:40;5.07;;;1.70;;
66974;SDS011;53903;51.464;-2.584;2022-08-03T06:30:06;1.52;;;0.82;;
66974;SDS011;53903;51.464;-2.584;2022-08-03T06:32:34;2.53;;;0.93;;
66974;SDS011;53903;51.464;-2.584;2022-08-03T06:35:00;4.60;;;1.00;;
66974;SDS011;53903;51.464;-2.584;2022-08-03T06:37:26;5.13;;;0.90;;
66974;SDS011;53903;51.464;-2.584;2022-08-03T06:39:51;1.33;;;0.90;;
66974;SDS011;53903;51.464;-2.584;2022-08-03T06:42:17;3.38;;;0.90;;
66974;SDS011;53903;51.464;-2.584;2022-08-03T06:44:42;3.72;;;1.02;;
66974;SDS011;53903;51.464;-2.584;2022-08-03T06:47:08;6.13;;;2.80;;
66974;SDS011;53903;51.464;-2.584;2022-08-03T06:49:33;3.35;;;1.00;;
66974;SDS011;53903;51.464;-2.584;2022-08-03T06:51:59;3.75;;;1.00;;
66974;SDS011;53903;51.464;-2.584;2022-08-03T06:54:24;1.80;;;0.98;;
66974;SDS011;53903;51.464;-2.584;2022-08-03T06:56:49;3.85;;;0.80;;
66974;SDS011;53903;51.464;-2.584;2022-08-03T06:59:16;3.22;;;0.80;;
66974;SDS011;53903;51.464;-2.584;2022-08-03T07:01:41;1.70;;;0.80;;
66974;SDS011;53903;51.464;-2.584;2022-08-03T07:04:07;3.28;;;1.10;;
66974;SDS011;53903;51.464;-2.584;2022-08-03T07:06:32;4.00;;;1.10;;
66974;SDS011;53903;51.464;-2.584;2022-08-03T07:08:58;3.05;;;0.93;;
66974;SDS011;53903;51.464;-2.584;2022-08-03T07:11:23;3.42;;;0.98;;
66974;SDS011;53903;51.464;-2.584;2022-08-03T07:13:49;2.00;;;1.00;;
66974;SDS011;53903;51.464;-2.584;2022-08-03T07:16:14;3.35;;;1.40;;
66974;SDS011;53903;51.464;-2.584;2022-08-03T07:18:40;4.07;;;1.00;;
66974;SDS011;53903;51.464;-2.584;2022-08-03T07:21:05;2.33;;;0.90;;
66974;SDS011;53903;51.464;-2.584;2022-08-03T07:23:32;1.92;;;1.00;;
66974;SDS011;53903;51.464;-2.584;2022-08-03T07:25:57;2.20;;;1.33;;
66974;SDS011;53903;51.464;-2.584;2022-08-03T07:28:22;2.00;;;0.93;;
66974;SDS011;53903;51.464;-2.584;2022-08-03T07:30:48;7.07;;;3.90;;
66974;SDS011;53903;51.464;-2.584;2022-08-03T07:33:13;2.03;;;1.00;;
66974;SDS011;53903;51.464;-2.584;2022-08-03T07:35:39;3.28;;;0.88;;
66974;SDS011;53903;51.464;-2.584;2022-08-03T07:38:04;1.42;;;1.00;;
66974;SDS011;53903;51.464;-2.584;2022-08-03T07:40:30;5.82;;;1.92;;
66974;SDS011;53903;51.464;-2.584;2022-08-03T07:42:55;1.50;;;1.02;;
66974;SDS011;53903;51.464;-2.584;2022-08-03T07:45:22;2.55;;;0.90;;
66974;SDS011;53903;51.464;-2.584;2022-08-03T07:47:48;4.20;;;1.08;;
66974;SDS011;53903;51.464;-2.584;2022-08-03T07:50:13;1.20;;;0.98;;
66974;SDS011;53903;51.464;-2.584;2022-08-03T07:52:38;2.50;;;1.23;;
66974;SDS011;53903;51.464;-2.584;2022-08-03T07:55:13;3.70;;;1.70;;
66974;SDS011;53903;51.464;-2.584;2022-08-03T07:57:39;5.10;;;2.15;;
66974;SDS011;53903;51.464;-2.584;2022-08-03T08:00:06;2.40;;;1.50;;
66974;SDS011;53903;51.464;-2.584;2022-08-03T08:02:36;2.58;;;1.38;;
66974;SDS011;53903;51.464;-2.584;2022-08-03T08:05:01;3.42;;;1.60;;
66974;SDS011;53903;51.464;-2.584;2022-08-03T08:07:27;2.75;;;1.35;;
66974;SDS011;53903;51.464;-2.584;2022-08-03T08:09:52;3.38;;;1.60;;
66974;SDS011;53903;51.464;-2.584;2022-08-03T08:12:17;3.05;;;1.50;;
66974;SDS011;53903;51.464;-2.584;2022-08-03T08:14:43;2.70;;;1.23;;
66974;SDS011;53903;51.464;-2.584;2022-08-03T08:17:10;3.55;;;1.10;;
66974;SDS011;53903;51.464;-2.584;2022-08-03T08:19:36;4.15;;;1.50;;
66974;SDS011;53903;51.464;-2.584;2022-08-03T08:22:01;5.25;;;1.25;;
66974;SDS011;53903;51.464;-2.584;2022-08-03T08:24:27;4.10;;;1.65;;
66974;SDS011;53903;51.464;-2.584;2022-08-03T08:26:54;2.08;;;1.20;;
66974;SDS011;53903;51.464;-2.584;2022-08-03T08:29:20;3.55;;;1.27;;
66974;SDS011;53903;51.464;-2.584;2022-08-03T08:31:47;3.53;;;2.30;;
66974;SDS011;53903;51.464;-2.584;2022-08-03T08:34:13;4.18;;;1.30;;
66974;SDS011;53903;51.464;-2.584;2022-08-03T08:36:38;2.45;;;1.35;;
66974;SDS011;53903;51.464;-2.584;2022-08-03T08:39:04;2.33;;;1.00;;
66974;SDS011;53903;51.464;-2.584;2022-08-03T08:41:29;2.05;;;0.95;;
66974;SDS011;53903;51.464;-2.584;2022-08-03T08:43:57;0.52;;;0.52;;
66974;SDS011;53903;51.464;-2.584;2022-08-03T08:46:23;1.08;;;0.77;;
66974;SDS011;53903;51.464;-2.584;2022-08-03T08:48:49;2.15;;;1.00;;
66974;SDS011;53903;51.464;-2.584;2022-08-03T08:51:15;2.33;;;1.08;;
66974;SDS011;53903;51.464;-2.584;2022-08-03T08:53:44;3.60;;;1.23;;
66974;SDS011;53903;51.464;-2.584;2022-08-03T08:56:13;2.05;;;1.00;;
66974;SDS011;53903;51.464;-2.584;2022-08-03T08:58:46;1.73;;;1.00;;
66974;SDS011;53903;51.464;-2.584;2022-08-03T09:01:18;2.83;;;1.88;;
66974;SDS011;53903;51.464;-2.584;2022-08-03T09:03:45;1.85;;;1.65;;
66974;SDS011;53903;51.464;-2.584;2022-08-03T09:06:10;3.97;;;1.83;;
66974;SDS011;53903;51.464;-2.584;2022-08-03T09:08:36;1.90;;;1.70;;
66974;SDS011;53903;51.464;-2.584;2022-08-03T09:11:01;1.00;;;0.90;;
66974;SDS011;53903;51.464;-2.584;2022-08-03T09:13:27;1.80;;;1.40;;
66974;SDS011;53903;51.464;-2.584;2022-08-03T09:16:07;4.20;;;1.38;;
66974;SDS011;53903;51.464;-2.584;2022-08-03T09:18:36;2.88;;;1.30;;
66974;SDS011;53903;51.464;-2.584;2022-08-03T09:21:12;1.63;;;1.30;;
66974;SDS011;53903;51.464;-2.584;2022-08-03T09:23:49;1.77;;;1.30;;
66974;SDS011;53903;51.464;-2.584;2022-08-03T09:26:23;3.33;;;1.45;;
66974;SDS011;53903;51.464;-2.584;2022-08-03T09:31:45;2.63;;;1.30;;
66974;SDS011;53903;51.464;-2.584;2022-08-03T09:34:11;2.17;;;1.70;;
66974;SDS011;53903;51.464;-2.584;2022-08-03T09:41:43;2.05;;;1.80;;
66974;SDS011;53903;51.464;-2.584;2022-08-03T09:44:10;2.80;;;2.33;;
66974;SDS011;53903;51.464;-2.584;2022-08-03T09:46:54;3.10;;;2.35;;
66974;SDS011;53903;51.464;-2.584;2022-08-03T09:49:20;3.92;;;2.38;;
66974;SDS011;53903;51.464;-2.584;2022-08-03T09:51:45;2.88;;;2.45;;
66974;SDS011;53903;51.464;-2.584;2022-08-03T09:54:11;3.15;;;2.63;;
66974;SDS011;53903;51.464;-2.584;2022-08-03T09:56:43;2.85;;;2.00;;
66974;SDS011;53903;51.464;-2.584;2022-08-03T09:59:10;3.17;;;2.30;;
66974;SDS011;53903;51.464;-2.584;2022-08-03T10:01:37;3.55;;;2.17;;
66974;SDS011;53903;51.464;-2.584;2022-08-03T10:04:05;1.50;;;1.40;;
66974;SDS011;53903;51.464;-2.584;2022-08-03T10:06:36;1.60;;;1.17;;
66974;SDS011;53903;51.464;-2.584;2022-08-03T10:09:05;4.40;;;1.75;;
66974;SDS011;53903;51.464;-2.584;2022-08-03T10:11:32;2.88;;;1.75;;
66974;SDS011;53903;51.464;-2.584;2022-08-03T10:14:00;3.15;;;1.80;;
66974;SDS011;53903;51.464;-2.584;2022-08-03T10:16:32;3.95;;;2.10;;
66974;SDS011;53903;51.464;-2.584;2022-08-03T10:18:59;2.67;;;1.80;;
66974;SDS011;53903;51.464;-2.584;2022-08-03T10:21:25;6.22;;;2.03;;
66974;SDS011;53903;51.464;-2.584;2022-08-03T10:23:57;6.55;;;2.60;;
66974;SDS011;53903;51.464;-2.584;2022-08-03T10:26:24;5.35;;;2.35;;
66974;SDS011;53903;51.464;-2.584;2022-08-03T10:28:50;6.75;;;2.47;;
66974;SDS011;53903;51.464;-2.584;2022-08-03T10:31:19;3.67;;;2.58;;
66974;SDS011;53903;51.464;-2.584;2022-08-03T10:33:46;4.78;;;2.15;;
66974;SDS011;53903;51.464;-2.584;2022-08-03T10:36:13;5.25;;;2.20;;
66974;SDS011;53903;51.464;-2.584;2022-08-03T10:38:42;4.28;;;2.13;;
66974;SDS011;53903;51.464;-2.584;2022-08-03T10:41:15;4.18;;;1.65;;
66974;SDS011;53903;51.464;-2.584;2022-08-03T10:43:42;3.85;;;1.73;;
66974;SDS011;53903;51.464;-2.584;2022-08-03T10:48:38;3.65;;;2.00;;
66974;SDS011;53903;51.464;-2.584;2022-08-03T10:51:03;6.32;;;2.15;;
66974;SDS011;53903;51.464;-2.584;2022-08-03T10:53:34;5.82;;;2.17;;
66974;SDS011;53903;51.464;-2.584;2022-08-03T10:56:51;4.97;;;2.30;;
66974;SDS011;53903;51.464;-2.584;2022-08-03T10:59:19;2.45;;;1.60;;
66974;SDS011;53903;51.464;-2.584;2022-08-03T11:02:11;7.05;;;2.55;;
66974;SDS011;53903;51.464;-2.584;2022-08-03T11:04:38;6.82;;;2.28;;
66974;SDS011;53903;51.464;-2.584;2022-08-03T11:09:41;5.43;;;2.00;;
66974;SDS011;53903;51.464;-2.584;2022-08-03T11:12:27;4.57;;;1.70;;
66974;SDS011;53903;51.464;-2.584;2022-08-03T11:14:54;3.58;;;1.77;;
66974;SDS011;53903;51.464;-2.584;2022-08-03T11:17:20;4.03;;;1.58;;
66974;SDS011;53903;51.464;-2.584;2022-08-03T11:19:48;7.72;;;2.38;;
66974;SDS011;53903;51.464;-2.584;2022-08-03T11:22:15;2.92;;;1.80;;
66974;SDS011;53903;51.464;-2.584;2022-08-03T11:35:10;4.53;;;2.08;;
66974;SDS011;53903;51.464;-2.584;2022-08-03T11:46:01;5.93;;;1.77;;
66974;SDS011;53903;51.464;-2.584;2022-08-03T11:48:44;6.15;;;2.00;;
66974;SDS011;53903;51.464;-2.584;2022-08-03T11:51:24;7.00;;;2.00;;
66974;SDS011;53903;51.464;-2.584;2022-08-03T11:53:51;4.65;;;1.95;;
66974;SDS011;53903;51.464;-2.584;2022-08-03T11:56:24;6.32;;;2.40;;
66974;SDS011;53903;51.464;-2.584;2022-08-03T11:58:51;5.00;;;2.20;;
66974;SDS011;53903;51.464;-2.584;2022-08-03T12:01:19;3.40;;;1.42;;
66974;SDS011;53903;51.464;-2.584;2022-08-03T12:03:45;4.60;;;1.80;;
66974;SDS011;53903;51.464;-2.584;2022-08-03T12:06:12;4.80;;;1.90;;
66974;SDS011;53903;51.464;-2.584;2022-08-03T12:08:38;7.18;;;2.90;;
66974;SDS011;53903;51.464;-2.584;2022-08-03T12:11:05;5.47;;;1.95;;
66974;SDS011;53903;51.464;-2.584;2022-08-03T12:13:39;6.70;;;1.90;;
66974;SDS011;53903;51.464;-2.584;2022-08-03T12:16:17;2.58;;;1.58;;
66974;SDS011;53903;51.464;-2.584;2022-08-03T12:18:43;5.15;;;1.60;;
66974;SDS011;53903;51.464;-2.584;2022-08-03T12:21:10;4.78;;;1.65;;
66974;SDS011;53903;51.464;-2.584;2022-08-03T12:23:36;6.40;;;2.05;;
66974;SDS011;53903;51.464;-2.584;2022-08-03T12:26:03;4.50;;;1.50;;
66974;SDS011;53903;51.464;-2.584;2022-08-03T12:28:30;3.72;;;1.50;;
66974;SDS011;53903;51.464;-2.584;2022-08-03T12:30:59;4.13;;;1.70;;
66974;SDS011;53903;51.464;-2.584;2022-08-03T12:33:26;6.70;;;2.08;;
66974;SDS011;53903;51.464;-2.584;2022-08-03T12:38:30;4.45;;;1.73;;
66974;SDS011;53903;51.464;-2.584;2022-08-03T12:40:57;7.00;;;2.10;;
66974;SDS011;53903;51.464;-2.584;2022-08-03T12:43:23;3.28;;;1.70;;
66974;SDS011;53903;51.464;-2.584;2022-08-03T12:45:49;6.15;;;2.13;;
66974;SDS011;53903;51.464;-2.584;2022-08-03T12:48:14;7.38;;;1.85;;
66974;SDS011;53903;51.464;-2.584;2022-08-03T12:50:40;5.47;;;2.45;;
66974;SDS011;53903;51.464;-2.584;2022-08-03T12:53:06;5.45;;;1.70;;
66974;SDS011;53903;51.464;-2.584;2022-08-03T12:55:34;4.97;;;1.60;;
66974;SDS011;53903;51.464;-2.584;2022-08-03T12:58:01;5.82;;;1.95;;
66974;SDS011;53903;51.464;-2.584;2022-08-03T13:00:27;3.55;;;1.50;;
66974;SDS011;53903;51.464;-2.584;2022-08-03T13:03:00;6.35;;;1.52;;
66974;SDS011;53903;51.464;-2.584;2022-08-03T13:05:30;4.07;;;1.30;;
66974;SDS011;53903;51.464;-2.584;2022-08-03T13:07:56;5.88;;;2.10;;
66974;SDS011;53903;51.464;-2.584;2022-08-03T13:10:31;6.95;;;2.08;;
66974;SDS011;53903;51.464;-2.584;2022-08-03T13:12:57;3.97;;;1.60;;
66974;SDS011;53903;51.464;-2.584;2022-08-03T13:15:24;4.38;;;1.45;;
66974;SDS011;53903;51.464;-2.584;2022-08-03T13:17:54;4.88;;;1.60;;
66974;SDS011;53903;51.464;-2.584;2022-08-03T13:20:20;5.97;;;2.00;;
66974;SDS011;53903;51.464;-2.584;2022-08-03T13:22:46;3.55;;;1.60;;
66974;SDS011;53903;51.464;-2.584;2022-08-03T13:25:12;4.53;;;1.77;;
66974;SDS011;53903;51.464;-2.584;2022-08-03T13:27:38;7.28;;;1.67;;
66974;SDS011;53903;51.464;-2.584;2022-08-03T13:30:04;4.32;;;1.40;;
66974;SDS011;53903;51.464;-2.584;2022-08-03T13:32:30;3.30;;;1.60;;
66974;SDS011;53903;51.464;-2.584;2022-08-03T13:34:56;5.00;;;1.80;;
66974;SDS011;53903;51.464;-2.584;2022-08-03T13:37:22;4.85;;;1.40;;
66974;SDS011;53903;51.464;-2.584;2022-08-03T13:39:47;2.78;;;1.40;;
66974;SDS011;53903;51.464;-2.584;2022-08-03T13:42:13;3.08;;;1.48;;
66974;SDS011;53903;51.464;-2.584;2022-08-03T13:44:38;1.70;;;1.10;;
66974;SDS011;53903;51.464;-2.584;2022-08-03T13:47:04;7.15;;;1.80;;
66974;SDS011;53903;51.464;-2.584;2022-08-03T13:49:30;5.45;;;1.42;;
66974;SDS011;53903;51.464;-2.584;2022-08-03T13:51:55;5.63;;;1.85;;
66974;SDS011;53903;51.464;-2.584;2022-08-03T13:54:21;2.88;;;1.42;;
66974;SDS011;53903;51.464;-2.584;2022-08-03T13:56:46;2.78;;;1.30;;
66974;SDS011;53903;51.464;-2.584;2022-08-03T13:59:18;4.28;;;1.50;;
66974;SDS011;53903;51.464;-2.584;2022-08-03T14:01:48;7.97;;;1.83;;
66974;SDS011;53903;51.464;-2.584;2022-08-03T14:04:14;8.02;;;1.92;;
66974;SDS011;53903;51.464;-2.584;2022-08-03T14:06:39;3.58;;;1.52;;
66974;SDS011;53903;51.464;-2.584;2022-08-03T14:09:05;2.65;;;1.40;;
66974;SDS011;53903;51.464;-2.584;2022-08-03T14:11:30;3.30;;;1.42;;
66974;SDS011;53903;51.464;-2.584;2022-08-03T14:13:56;1.80;;;1.10;;
66974;SDS011;53903;51.464;-2.584;2022-08-03T14:16:21;3.33;;;1.48;;
66974;SDS011;53903;51.464;-2.584;2022-08-03T14:18:46;1.92;;;1.23;;
66974;SDS011;53903;51.464;-2.584;2022-08-03T14:21:12;3.00;;;1.40;;
66974;SDS011;53903;51.464;-2.584;2022-08-03T14:23:37;4.68;;;1.45;;
66974;SDS011;53903;51.464;-2.584;2022-08-03T14:26:06;4.20;;;1.40;;
66974;SDS011;53903;51.464;-2.584;2022-08-03T14:28:32;6.60;;;1.30;;
66974;SDS011;53903;51.464;-2.584;2022-08-03T14:30:58;3.40;;;1.33;;
66974;SDS011;53903;51.464;-2.584;2022-08-03T14:33:23;3.63;;;1.35;;
66974;SDS011;53903;51.464;-2.584;2022-08-03T14:35:50;4.30;;;1.40;;
66974;SDS011;53903;51.464;-2.584;2022-08-03T14:38:15;4.07;;;1.50;;
66974;SDS011;53903;51.464;-2.584;2022-08-03T14:40:41;3.67;;;1.00;;
66974;SDS011;53903;51.464;-2.584;2022-08-03T14:43:07;4.18;;;1.20;;
66974;SDS011;53903;51.464;-2.584;2022-08-03T14:45:32;2.60;;;1.30;;
66974;SDS011;53903;51.464;-2.584;2022-08-03T14:47:58;4.40;;;1.50;;
66974;SDS011;53903;51.464;-2.584;2022-08-03T14:50:27;2.67;;;1.33;;
66974;SDS011;53903;51.464;-2.584;2022-08-03T14:52:55;4.00;;;1.60;;
66974;SDS011;53903;51.464;-2.584;2022-08-03T14:55:20;3.60;;;1.63;;
66974;SDS011;53903;51.464;-2.584;2022-08-03T14:57:46;7.50;;;1.48;;
66974;SDS011;53903;51.464;-2.584;2022-08-03T15:00:11;7.20;;;1.75;;
66974;SDS011;53903;51.464;-2.584;2022-08-03T15:02:37;2.08;;;1.10;;
66974;SDS011;53903;51.464;-2.584;2022-08-03T15:05:02;2.58;;;1.30;;
66974;SDS011;53903;51.464;-2.584;2022-08-03T15:07:28;4.68;;;1.40;;
66974;SDS011;53903;51.464;-2.584;2022-08-03T15:09:53;4.18;;;1.35;;
66974;SDS011;53903;51.464;-2.584;2022-08-03T15:12:19;4.60;;;1.60;;
66974;SDS011;53903;51.464;-2.584;2022-08-03T15:14:45;5.28;;;1.25;;
66974;SDS011;53903;51.464;-2.584;2022-08-03T15:17:10;4.45;;;1.40;;
66974;SDS011;53903;51.464;-2.584;2022-08-03T15:19:36;4.13;;;1.25;;